• Join FlightAware (Why Join?)
  • Login
  • US Flag 
03:52AM EDT


 

Airport Tracker/Info


-or-


 

Live Flight TrackerFlight Track Log ✈ HAL104 ✈ 28-Apr-2013 ✈ PHLI / LIH - PHNL

Flight Track Log - Related Links

Times and Time Zones

All times are in EDT time to prevent confusion due to time zone crossing. See the HAL104 flight status page for this flight to view local times or setup timezone preferences in your user account.

Time Position Orientation Groundspeed Altitude Reporting Facility
EDT Latitude Longitude Course Direction KTS MPH feet Rate Location/Type
12:33PM 21.9500 -159.3333 126° Southeast 150 173 1,100  Level Honolulu Center
12:34PM 21.9333 -159.2833 110° East 190 219 2,900 1,920 Climbing Honolulu Center
12:35PM 21.8670 -159.1674 118° Southeast  Level FlightAware Approximate
12:35PM 21.9000 -159.2167 118° Southeast 240 276 5,000  Level Honolulu Center
12:36PM 21.8367 -159.1068 118° Southeast  Level FlightAware Approximate
12:36PM 21.8667 -159.1500 118° Southeast 240 276 7,200  Level Honolulu Center
12:37PM 21.8003 -159.0504 126° Southeast  Level FlightAware Approximate
12:37PM 21.8333 -159.0833 118° Southeast 290 334 10,100  Level Honolulu Center
12:38PM 21.7631 -158.9946 126° Southeast  Level FlightAware Approximate
12:38PM 21.7833 -159.0000 123° Southeast 330 380 12,200  Level Honolulu Center
12:39PM 21.7167 -158.9000 126° Southeast 350 403 13,100 420 Climbing Honolulu Center
12:40PM 21.6667 -158.8000 118° Southeast 380 437 13,100 -60 Level Honolulu Center
12:41PM 21.6167 -158.7167 123° Southeast 390 449 13,000 -60 Descending Honolulu Center
12:42PM 21.5667 -158.6167 118° Southeast 380 437 13,000 -600 Level Honolulu Center
12:43PM 21.5333 -158.5167 110° East 350 403 11,800 -1,260 Descending Honolulu Center
12:44PM 21.5000 -158.4333 113° Southeast 300 345 10,500 -1,560 Descending Honolulu Center
12:45PM 21.4667 -158.3500 113° Southeast 290 334 8,700 -1,800 Descending Honolulu Center
12:46PM 21.4500 -158.2667 102° East 280 322 6,900 -1,800 Descending Honolulu Center
12:47PM 21.4000 -158.2000 129° Southeast 270 311 5,100 -960 Descending Honolulu Center
12:48PM 21.3500 -158.1333 129° Southeast 270 311 5,000 -600 Descending Honolulu Center
12:49PM 21.3000 -158.0833 137° Southeast 240 276 4,000 -1,200 Descending Honolulu Center
12:50PM 21.2833 -158.0333 110° East 220 253 2,600 -1,440 Descending Honolulu Center